Time;durP1;ratioP1;P1;durP2;ratioP2;P2;SDS_P1;SDS_P2;PMS_P1;PMS_P2;Temp;Humidity;BMP_temperature;BMP_pressure;BME280_temperature;BME280_humidity;BME280_pressure;Samples;Min_cycle;Max_cycle;Signal;HPM_P1;HPM_P2
2023/08/16 00:01:23;;;;;;;5.97;3.65;;;13.60;99.90;;;;;;5030138;28;20067;-70
2023/08/16 00:03:49;;;;;;;5.65;3.10;;;13.60;99.90;;;;;;5033955;28;20048;-71
2023/08/16 00:06:14;;;;;;;5.93;3.00;;;13.60;99.90;;;;;;5028315;28;20099;-71
2023/08/16 00:08:41;;;;;;;7.28;2.92;;;13.60;99.90;;;;;;5043082;28;20090;-71
2023/08/16 00:11:07;;;;;;;6.45;3.00;;;13.60;99.90;;;;;;5045588;28;20032;-70
2023/08/16 00:13:33;;;;;;;4.20;2.75;;;13.50;99.90;;;;;;5030186;28;20040;-70
2023/08/16 00:16:01;;;;;;;7.72;3.20;;;13.50;99.90;;;;;;5031309;28;20025;-70
2023/08/16 00:18:27;;;;;;;14.45;6.22;;;13.40;99.90;;;;;;5041880;28;20024;-71
2023/08/16 00:20:53;;;;;;;18.75;8.18;;;13.40;99.90;;;;;;5028923;28;20041;-70
2023/08/16 00:23:19;;;;;;;17.70;7.72;;;13.30;99.90;;;;;;5031881;28;20085;-70
2023/08/16 00:25:44;;;;;;;17.05;7.00;;;13.30;99.90;;;;;;5023859;28;20025;-70
2023/08/16 00:28:10;;;;;;;12.52;5.40;;;13.20;99.90;;;;;;5023401;28;20589;-71
2023/08/16 00:30:35;;;;;;;11.13;5.18;;;13.20;99.90;;;;;;5028000;28;20818;-70
2023/08/16 00:33:01;;;;;;;7.70;3.10;;;13.20;99.90;;;;;;5030825;28;20040;-71
2023/08/16 00:35:27;;;;;;;7.03;2.72;;;13.10;99.90;;;;;;5031388;28;20136;-70
2023/08/16 00:37:52;;;;;;;7.70;2.80;;;13.10;99.90;;;;;;5037409;28;20080;-70
2023/08/16 00:40:19;;;;;;;7.13;2.88;;;13.10;99.90;;;;;;5019474;28;20044;-70
2023/08/16 00:42:45;;;;;;;6.80;2.53;;;13.10;99.90;;;;;;5026873;28;20017;-71
2023/08/16 00:45:11;;;;;;;8.90;3.38;;;13.10;99.90;;;;;;5028492;28;20040;-70
2023/08/16 00:47:37;;;;;;;8.45;4.28;;;13.00;99.90;;;;;;5054641;28;20025;-70
2023/08/16 00:50:03;;;;;;;14.57;5.25;;;13.00;99.90;;;;;;5021540;28;20080;-71
2023/08/16 00:52:29;;;;;;;13.93;5.93;;;12.90;99.90;;;;;;5026784;28;20088;-70
2023/08/16 00:54:55;;;;;;;8.13;3.65;;;12.80;99.90;;;;;;5030060;28;20143;-70
2023/08/16 00:57:21;;;;;;;10.35;3.83;;;12.80;99.90;;;;;;5024313;28;20086;-70
2023/08/16 00:59:47;;;;;;;7.85;3.80;;;12.80;99.90;;;;;;5022539;28;20029;-70
2023/08/16 01:02:17;;;;;;;6.70;3.40;;;12.80;99.90;;;;;;5033332;28;20033;-70
2023/08/16 01:04:43;;;;;;;7.85;3.15;;;12.80;99.90;;;;;;5020394;28;20125;-70
2023/08/16 01:07:09;;;;;;;7.65;3.40;;;12.80;99.90;;;;;;5041743;28;20127;-70
2023/08/16 01:09:35;;;;;;;5.35;2.97;;;12.80;99.90;;;;;;5029014;28;20029;-71
2023/08/16 01:12:33;;;;;;;6.20;3.10;;;12.70;99.90;;;;;;5019617;28;20050;-70
2023/08/16 01:15:16;;;;;;;7.85;3.20;;;12.70;99.90;;;;;;5015908;28;20053;-70
2023/08/16 01:17:43;;;;;;;4.10;2.63;;;12.70;99.90;;;;;;5028572;28;20029;-71
2023/08/16 01:20:11;;;;;;;7.82;3.45;;;12.70;99.90;;;;;;5018150;28;20567;-70
2023/08/16 01:22:56;;;;;;;5.50;3.00;;;12.70;99.90;;;;;;5025929;28;20094;-70
2023/08/16 01:25:43;;;;;;;7.28;3.08;;;12.70;99.90;;;;;;5029846;28;20175;-70
2023/08/16 01:28:10;;;;;;;7.25;3.17;;;12.60;99.90;;;;;;5044371;28;20029;-70
2023/08/16 01:30:36;;;;;;;5.00;2.88;;;12.70;99.90;;;;;;5027296;28;20195;-70
2023/08/16 01:33:06;;;;;;;3.78;2.92;;;12.60;99.90;;;;;;5022222;28;20056;-71
2023/08/16 01:35:33;;;;;;;8.15;2.72;;;12.60;99.90;;;;;;5033582;28;20076;-70
2023/08/16 01:37:58;;;;;;;9.15;3.40;;;12.60;99.90;;;;;;5032206;28;20511;-70
2023/08/16 01:40:25;;;;;;;5.75;3.20;;;12.50;99.90;;;;;;5038350;28;20033;-70
2023/08/16 01:42:52;;;;;;;5.22;2.80;;;12.50;99.90;;;;;;5024410;28;20041;-70
2023/08/16 01:45:18;;;;;;;5.68;2.58;;;12.50;99.90;;;;;;5031406;28;20041;-70
2023/08/16 01:47:46;;;;;;;5.05;2.72;;;12.50;99.90;;;;;;5038139;28;20111;-70
2023/08/16 01:50:12;;;;;;;4.45;2.60;;;12.50;99.90;;;;;;5023399;28;20041;-70
2023/08/16 01:52:39;;;;;;;7.55;3.10;;;12.50;99.90;;;;;;5047761;28;20329;-70
2023/08/16 01:55:05;;;;;;;5.22;3.13;;;12.50;99.90;;;;;;5035279;28;20310;-71
2023/08/16 01:57:31;;;;;;;8.13;3.42;;;12.40;99.90;;;;;;5017120;28;20048;-70
2023/08/16 01:59:57;;;;;;;6.57;3.08;;;12.30;99.90;;;;;;5029114;28;20072;-70
2023/08/16 02:02:24;;;;;;;5.43;3.50;;;12.30;99.90;;;;;;5019628;28;20037;-70
2023/08/16 02:04:50;;;;;;;8.68;3.90;;;12.30;99.90;;;;;;5023640;28;20124;-70
2023/08/16 02:07:15;;;;;;;5.88;2.90;;;12.30;99.90;;;;;;5023818;28;20583;-70
2023/08/16 02:09:41;;;;;;;7.25;3.47;;;12.30;99.90;;;;;;5016683;28;20048;-71
2023/08/16 02:12:07;;;;;;;7.93;3.60;;;12.30;99.90;;;;;;5032107;28;20094;-70
2023/08/16 02:14:33;;;;;;;8.60;3.50;;;12.30;99.90;;;;;;5024926;28;20343;-70
2023/08/16 02:16:58;;;;;;;6.78;3.08;;;12.30;99.90;;;;;;5016614;28;20747;-70
2023/08/16 02:19:24;;;;;;;9.55;3.55;;;12.30;99.90;;;;;;5016369;28;20040;-70
2023/08/16 02:21:49;;;;;;;9.65;3.70;;;12.20;99.90;;;;;;5022815;28;20152;-70
2023/08/16 02:24:15;;;;;;;6.43;3.75;;;12.20;99.90;;;;;;5017051;28;20092;-71
2023/08/16 02:26:41;;;;;;;8.95;3.70;;;12.20;99.90;;;;;;5013544;28;20469;-71
2023/08/16 02:29:06;;;;;;;5.43;3.10;;;12.20;99.90;;;;;;5018091;28;20034;-70
2023/08/16 02:31:32;;;;;;;7.85;3.10;;;12.20;99.90;;;;;;5014525;28;20095;-70
2023/08/16 02:33:58;;;;;;;5.15;2.83;;;12.10;99.90;;;;;;5017155;28;20555;-71
2023/08/16 02:36:24;;;;;;;8.00;3.50;;;12.10;99.90;;;;;;5036621;28;20410;-70
2023/08/16 02:38:49;;;;;;;4.65;3.45;;;12.10;99.90;;;;;;5025049;28;20031;-70
2023/08/16 02:41:15;;;;;;;11.00;5.50;;;12.10;99.90;;;;;;5038562;28;20025;-71
2023/08/16 02:43:41;;;;;;;9.43;3.72;;;12.20;99.90;;;;;;5047867;28;20043;-70
2023/08/16 02:46:06;;;;;;;8.00;3.95;;;12.10;99.90;;;;;;5024804;28;20177;-70
2023/08/16 02:48:32;;;;;;;8.48;4.35;;;12.10;99.90;;;;;;5029464;28;20044;-71
2023/08/16 02:50:58;;;;;;;17.83;5.80;;;12.10;99.90;;;;;;5026721;28;20063;-70
2023/08/16 02:53:23;;;;;;;25.63;9.57;;;12.10;99.90;;;;;;5042483;28;20060;-70
2023/08/16 02:55:49;;;;;;;33.67;10.63;;;12.00;99.90;;;;;;5024730;28;20037;-70
2023/08/16 02:58:14;;;;;;;29.92;12.80;;;12.00;99.90;;;;;;5023133;28;20037;-70
2023/08/16 03:00:40;;;;;;;27.48;10.30;;;12.00;99.90;;;;;;5020495;28;20525;-70
2023/08/16 03:03:06;;;;;;;20.02;7.95;;;12.00;99.90;;;;;;5024965;28;20103;-71
2023/08/16 03:05:31;;;;;;;20.02;8.23;;;12.00;99.90;;;;;;5031516;28;20029;-70
2023/08/16 03:07:57;;;;;;;19.35;7.90;;;12.00;99.90;;;;;;5045216;28;20025;-70
2023/08/16 03:10:23;;;;;;;18.70;7.63;;;12.00;99.90;;;;;;5033316;28;20077;-71
2023/08/16 03:12:48;;;;;;;20.85;7.18;;;12.00;99.90;;;;;;5026341;28;20048;-71
2023/08/16 03:15:14;;;;;;;13.88;6.28;;;11.90;99.90;;;;;;5020197;28;20547;-70
2023/08/16 03:17:39;;;;;;;16.70;6.38;;;11.90;99.90;;;;;;5034498;28;20236;-70
2023/08/16 03:20:07;;;;;;;13.82;5.07;;;11.90;99.90;;;;;;5030479;28;20033;-70
2023/08/16 03:22:33;;;;;;;9.90;4.57;;;11.90;99.90;;;;;;5043748;28;20178;-70
2023/08/16 03:24:59;;;;;;;12.65;5.22;;;11.90;99.90;;;;;;5024162;28;20788;-70
2023/08/16 03:27:24;;;;;;;65.68;24.67;;;11.90;99.90;;;;;;5041648;28;20166;-70
2023/08/16 03:29:50;;;;;;;60.75;21.15;;;11.80;99.90;;;;;;5023497;28;20034;-70
2023/08/16 03:32:15;;;;;;;48.42;20.27;;;11.80;99.90;;;;;;5032142;28;20063;-70
2023/08/16 03:34:42;;;;;;;40.22;15.15;;;11.80;99.90;;;;;;5030391;28;20228;-70
2023/08/16 03:37:08;;;;;;;41.85;15.48;;;11.70;99.90;;;;;;5021193;28;20033;-70
2023/08/16 03:39:34;;;;;;;33.42;11.27;;;11.70;99.90;;;;;;5030464;28;20036;-70
2023/08/16 03:41:59;;;;;;;23.10;9.40;;;11.70;99.90;;;;;;5048164;28;20162;-69
2023/08/16 03:44:25;;;;;;;17.92;7.07;;;11.70;99.90;;;;;;5035391;28;20021;-70
2023/08/16 03:46:51;;;;;;;21.08;8.02;;;11.70;99.90;;;;;;5034674;28;20041;-70
2023/08/16 03:49:16;;;;;;;6.10;3.55;;;11.70;99.90;;;;;;5029097;28;20103;-70
2023/08/16 03:51:42;;;;;;;6.07;3.33;;;11.70;99.90;;;;;;5021896;28;20125;-70
2023/08/16 03:54:07;;;;;;;6.55;3.35;;;11.60;99.90;;;;;;5027993;28;20453;-70
2023/08/16 03:56:33;;;;;;;7.25;3.13;;;11.60;99.90;;;;;;5041031;28;20025;-70
2023/08/16 03:58:59;;;;;;;7.93;2.72;;;11.70;99.90;;;;;;5033652;28;20033;-70
2023/08/16 04:01:24;;;;;;;7.70;2.92;;;11.60;99.90;;;;;;5029917;28;20388;-70
2023/08/16 04:03:50;;;;;;;4.53;3.05;;;11.70;99.90;;;;;;5033039;28;20381;-70
2023/08/16 04:06:19;;;;;;;7.47;3.47;;;11.60;99.90;;;;;;5024128;28;20037;-70
2023/08/16 04:08:45;;;;;;;6.05;3.45;;;11.60;99.90;;;;;;5016523;28;20057;-70
2023/08/16 04:11:10;;;;;;;5.03;3.22;;;11.60;99.90;;;;;;5041811;28;20378;-71
2023/08/16 04:13:36;;;;;;;5.35;2.95;;;11.50;99.90;;;;;;5036903;28;20499;-70
2023/08/16 04:16:02;;;;;;;4.57;2.30;;;11.50;99.90;;;;;;5025440;28;20164;-70
2023/08/16 04:18:28;;;;;;;5.68;3.05;;;11.50;99.90;;;;;;5034581;28;20285;-70
2023/08/16 04:20:54;;;;;;;3.10;2.42;;;11.40;99.90;;;;;;5026781;28;20037;-70
2023/08/16 04:23:21;;;;;;;4.00;2.70;;;11.40;99.90;;;;;;5032892;28;20079;-70
2023/08/16 04:25:46;;;;;;;3.50;2.50;;;11.40;99.90;;;;;;5024435;28;20080;-70
2023/08/16 04:28:12;;;;;;;4.75;2.50;;;11.40;99.90;;;;;;5038146;28;20531;-70
2023/08/16 04:30:37;;;;;;;4.72;2.72;;;11.30;99.90;;;;;;5021881;28;20029;-70
2023/08/16 04:33:03;;;;;;;4.32;2.83;;;11.30;99.90;;;;;;5033071;28;20407;-70
2023/08/16 04:35:29;;;;;;;4.63;2.47;;;11.30;99.90;;;;;;5014781;28;20154;-70
2023/08/16 04:37:54;;;;;;;4.18;2.50;;;11.30;99.90;;;;;;5036399;28;20045;-70
2023/08/16 04:40:20;;;;;;;3.97;2.45;;;11.30;99.90;;;;;;5032362;28;20029;-70
2023/08/16 04:42:46;;;;;;;5.35;2.65;;;11.30;99.90;;;;;;5038817;28;20139;-70
2023/08/16 04:45:11;;;;;;;2.90;2.30;;;11.20;99.90;;;;;;5024846;28;20043;-70
2023/08/16 04:47:37;;;;;;;5.90;2.85;;;11.20;99.90;;;;;;5051721;28;20020;-70
2023/08/16 04:50:06;;;;;;;6.82;2.80;;;11.20;99.90;;;;;;5052341;28;20804;-71
2023/08/16 04:52:37;;;;;;;4.18;2.90;;;11.20;99.90;;;;;;5030218;28;20083;-70
2023/08/16 04:55:07;;;;;;;5.68;3.03;;;11.20;99.90;;;;;;5020670;28;20029;-70
2023/08/16 04:57:32;;;;;;;5.43;3.28;;;11.30;99.90;;;;;;5041861;28;20045;-70
2023/08/16 04:59:58;;;;;;;5.72;3.45;;;11.30;99.90;;;;;;5036965;28;20100;-70
2023/08/16 05:02:24;;;;;;;8.48;3.75;;;11.20;99.90;;;;;;5023855;28;20087;-70
2023/08/16 05:04:50;;;;;;;6.07;3.22;;;11.30;99.90;;;;;;5028081;28;20112;-70
2023/08/16 05:07:15;;;;;;;5.40;3.45;;;11.30;99.90;;;;;;5018774;28;20032;-71
2023/08/16 05:09:41;;;;;;;7.85;3.83;;;11.40;99.90;;;;;;5032622;28;20025;-70
2023/08/16 05:12:07;;;;;;;6.35;4.00;;;11.40;99.90;;;;;;5022547;28;20437;-70
2023/08/16 05:14:33;;;;;;;5.25;3.88;;;11.40;99.90;;;;;;5031401;28;20111;-70
2023/08/16 05:16:58;;;;;;;4.63;3.33;;;11.50;99.90;;;;;;5025723;28;20045;-70
2023/08/16 05:19:24;;;;;;;5.32;3.60;;;11.50;99.90;;;;;;5028186;28;20147;-70
2023/08/16 05:21:49;;;;;;;3.65;2.85;;;11.60;99.90;;;;;;5029332;28;20094;-70
2023/08/16 05:24:15;;;;;;;5.20;3.47;;;11.60;99.90;;;;;;5030687;28;20063;-70
2023/08/16 05:26:40;;;;;;;4.63;3.05;;;11.70;99.90;;;;;;5032612;28;20546;-70
2023/08/16 05:29:06;;;;;;;3.75;3.00;;;11.70;99.90;;;;;;5034065;28;20052;-70
2023/08/16 05:31:32;;;;;;;4.20;3.10;;;11.80;99.90;;;;;;5042180;28;20068;-70
2023/08/16 05:33:57;;;;;;;3.80;2.90;;;11.90;99.90;;;;;;5041714;28;20039;-71
2023/08/16 05:36:28;;;;;;;5.00;3.22;;;11.90;99.90;;;;;;5024343;28;20400;-70
2023/08/16 05:38:54;;;;;;;5.70;3.05;;;12.00;99.90;;;;;;5030580;28;20025;-70
2023/08/16 05:41:19;;;;;;;9.10;3.45;;;12.10;99.90;;;;;;5034610;28;20025;-70
2023/08/16 05:43:45;;;;;;;4.97;3.28;;;12.10;99.90;;;;;;5028307;28;20029;-70
2023/08/16 05:46:10;;;;;;;3.95;2.72;;;12.10;99.90;;;;;;5025224;28;20164;-70
2023/08/16 05:48:36;;;;;;;4.80;2.92;;;12.00;99.90;;;;;;5026541;28;20029;-70
2023/08/16 05:51:02;;;;;;;5.68;3.03;;;12.10;99.90;;;;;;5039375;28;20345;-70
2023/08/16 05:53:27;;;;;;;4.10;2.95;;;12.10;99.90;;;;;;5041186;28;20040;-70
2023/08/16 05:55:53;;;;;;;4.90;3.03;;;12.10;99.90;;;;;;5028997;28;20032;-70
2023/08/16 05:58:18;;;;;;;4.00;2.95;;;12.20;99.90;;;;;;5050549;28;20107;-70
2023/08/16 06:00:46;;;;;;;6.45;2.80;;;12.10;99.90;;;;;;5038548;28;20034;-70
2023/08/16 06:03:13;;;;;;;5.65;3.20;;;12.10;99.90;;;;;;5027147;28;20025;-70
2023/08/16 06:05:39;;;;;;;8.00;7.20;;;12.10;99.90;;;;;;5023324;28;20029;-70
2023/08/16 06:08:05;;;;;;;12.57;10.93;;;12.20;99.90;;;;;;5030980;28;20108;-70
2023/08/16 06:10:31;;;;;;;6.25;4.72;;;12.30;99.90;;;;;;5024334;28;20193;-70
2023/08/16 06:12:56;;;;;;;4.03;3.42;;;12.40;99.90;;;;;;5017698;28;20034;-70
2023/08/16 06:15:22;;;;;;;5.53;3.72;;;12.50;99.90;;;;;;5025755;28;20057;-70
2023/08/16 06:17:48;;;;;;;4.05;3.28;;;12.70;99.90;;;;;;5025369;28;20028;-70
2023/08/16 06:20:14;;;;;;;5.95;3.88;;;12.80;99.90;;;;;;5021547;28;20017;-70
2023/08/16 06:22:39;;;;;;;5.88;3.17;;;12.90;99.90;;;;;;5018969;28;20280;-70
2023/08/16 06:25:09;;;;;;;11.13;6.55;;;13.10;99.90;;;;;;5027112;28;20392;-70
2023/08/16 06:27:35;;;;;;;24.33;15.05;;;13.30;99.90;;;;;;5031182;28;20114;-70
2023/08/16 06:30:01;;;;;;;8.55;5.05;;;13.50;99.90;;;;;;5052433;28;20024;-70
2023/08/16 06:32:26;;;;;;;7.25;4.68;;;13.70;99.90;;;;;;5026934;28;20051;-70
2023/08/16 06:34:52;;;;;;;5.53;3.10;;;13.90;99.90;;;;;;5034716;28;20036;-70
2023/08/16 06:37:18;;;;;;;3.85;2.40;;;14.10;99.90;;;;;;5031216;28;20528;-71
2023/08/16 06:39:43;;;;;;;5.03;2.95;;;14.40;99.90;;;;;;5030718;28;20049;-70
2023/08/16 06:42:12;;;;;;;4.40;2.65;;;14.60;99.90;;;;;;5031068;28;20117;-70
2023/08/16 06:44:37;;;;;;;8.85;2.83;;;14.80;99.90;;;;;;5025781;28;20036;-70
2023/08/16 06:47:03;;;;;;;3.95;2.45;;;14.90;99.90;;;;;;5033204;28;20488;-70
2023/08/16 06:49:30;;;;;;;6.00;2.90;;;14.90;99.90;;;;;;5029476;28;20020;-70
2023/08/16 06:51:56;;;;;;;7.38;3.65;;;15.00;99.90;;;;;;5033752;28;20056;-71
2023/08/16 06:54:22;;;;;;;6.53;3.60;;;14.90;99.90;;;;;;5026243;28;20775;-70
2023/08/16 06:56:49;;;;;;;20.15;8.82;;;15.10;99.90;;;;;;5028010;28;20327;-70
2023/08/16 06:59:15;;;;;;;21.25;11.70;;;15.20;99.90;;;;;;5027073;28;20021;-70
2023/08/16 07:01:40;;;;;;;10.73;6.03;;;15.30;99.90;;;;;;5022866;28;20485;-71
2023/08/16 07:04:06;;;;;;;6.97;4.70;;;15.50;99.90;;;;;;5023340;28;20033;-70
2023/08/16 07:06:32;;;;;;;6.13;4.20;;;15.70;99.90;;;;;;5022762;28;20021;-71
2023/08/16 07:09:00;;;;;;;11.60;4.43;;;15.90;99.90;;;;;;5031871;28;20037;-70
2023/08/16 07:11:26;;;;;;;6.85;4.30;;;16.00;99.90;;;;;;5027157;28;20153;-71
2023/08/16 07:13:52;;;;;;;7.65;4.68;;;16.10;99.90;;;;;;5032572;28;20573;-70
2023/08/16 07:16:18;;;;;;;7.22;4.43;;;16.20;99.90;;;;;;5040663;28;20567;-70
2023/08/16 07:18:44;;;;;;;8.25;4.47;;;16.30;99.90;;;;;;5033542;28;20055;-70
2023/08/16 07:21:10;;;;;;;8.15;4.63;;;16.40;99.90;;;;;;5014952;28;20513;-70
2023/08/16 07:23:36;;;;;;;6.18;4.28;;;16.60;99.90;;;;;;5015173;28;20388;-70
2023/08/16 07:26:03;;;;;;;8.48;5.20;;;16.70;99.90;;;;;;5014073;28;20044;-70
2023/08/16 07:28:28;;;;;;;6.13;4.72;;;16.80;99.90;;;;;;5018612;28;20162;-70
2023/08/16 07:30:55;;;;;;;6.85;4.55;;;16.90;99.90;;;;;;5015056;28;20088;-70
2023/08/16 07:33:21;;;;;;;7.43;4.57;;;17.10;99.90;;;;;;5028065;28;20137;-70
2023/08/16 07:35:48;;;;;;;8.30;4.20;;;17.30;99.90;;;;;;5027124;28;20025;-70
2023/08/16 07:38:14;;;;;;;12.38;5.95;;;17.50;99.90;;;;;;5054875;28;20033;-70
2023/08/16 07:40:39;;;;;;;8.18;4.88;;;17.70;99.90;;;;;;5037659;28;20135;-70
2023/08/16 07:43:05;;;;;;;10.43;5.35;;;17.90;99.90;;;;;;5033200;28;20056;-70
2023/08/16 07:45:31;;;;;;;9.57;5.07;;;18.20;99.90;;;;;;5025840;28;20459;-70
2023/08/16 07:47:56;;;;;;;8.70;4.75;;;18.50;99.90;;;;;;5033253;28;20048;-70
2023/08/16 07:50:22;;;;;;;8.52;4.78;;;19.00;99.90;;;;;;5033778;28;20507;-71
2023/08/16 07:52:49;;;;;;;9.77;4.40;;;19.80;99.90;;;;;;5039990;28;20464;-71
2023/08/16 07:55:15;;;;;;;8.75;3.85;;;21.20;99.90;;;;;;5048065;28;20025;-71
2023/08/16 07:57:41;;;;;;;5.03;3.47;;;23.80;99.90;;;;;;5023024;28;20044;-71
2023/08/16 08:00:11;;;;;;;5.90;2.63;;;26.40;99.90;;;;;;5024286;28;20033;-71
2023/08/16 08:02:38;;;;;;;5.07;2.90;;;28.40;99.30;;;;;;5021008;28;20080;-73
2023/08/16 08:05:05;;;;;;;4.78;2.42;;;29.50;94.50;;;;;;5030014;28;20133;-77
2023/08/16 08:07:30;;;;;;;3.90;2.25;;;30.00;90.40;;;;;;5030660;28;20163;-77
2023/08/16 08:09:57;;;;;;;5.63;2.50;;;29.50;88.90;;;;;;5030098;28;20464;-79
2023/08/16 08:12:23;;;;;;;5.45;2.20;;;29.60;90.20;;;;;;5023363;28;20030;-81
2023/08/16 08:14:49;;;;;;;4.00;1.92;;;30.60;85.70;;;;;;5062172;28;20195;-76
2023/08/16 08:17:15;;;;;;;4.40;1.75;;;32.20;80.20;;;;;;5025584;28;20030;-75
2023/08/16 08:19:41;;;;;;;4.63;2.08;;;34.10;72.60;;;;;;5024613;28;20036;-72
2023/08/16 08:22:06;;;;;;;6.38;1.92;;;34.90;64.70;;;;;;5036785;28;20040;-84
2023/08/16 08:24:32;;;;;;;3.15;1.45;;;34.90;61.00;;;;;;5032305;28;20399;-79
2023/08/16 08:26:58;;;;;;;4.30;1.60;;;35.00;59.10;;;;;;5021685;28;20511;-80
2023/08/16 08:29:25;;;;;;;6.68;1.77;;;35.70;57.90;;;;;;5034227;28;20602;-78
2023/08/16 08:31:53;;;;;;;4.10;1.23;;;36.80;56.20;;;;;;5026751;28;20103;-80
2023/08/16 08:34:19;;;;;;;7.00;1.38;;;37.80;51.40;;;;;;5030752;28;20059;-79
2023/08/16 08:36:45;;;;;;;3.67;1.42;;;38.20;51.40;;;;;;5020376;28;20029;-79
2023/08/16 08:39:10;;;;;;;4.88;1.70;;;39.30;49.60;;;;;;5028536;28;20021;-76
2023/08/16 08:41:37;;;;;;;5.15;1.58;;;40.20;47.40;;;;;;5023610;28;20046;-74
2023/08/16 08:44:05;;;;;;;5.28;1.90;;;40.20;45.90;;;;;;5034557;28;20037;-78
2023/08/16 08:46:31;;;;;;;4.43;1.70;;;40.00;45.20;;;;;;5016566;28;20025;-71
2023/08/16 08:49:00;;;;;;;3.55;1.80;;;39.50;45.40;;;;;;5021059;28;20492;-70
2023/08/16 08:51:29;;;;;;;4.70;1.83;;;38.70;46.80;;;;;;5015128;28;20508;-70
2023/08/16 08:53:55;;;;;;;6.90;2.75;;;37.80;46.50;;;;;;5021291;28;20112;-70
2023/08/16 08:56:21;;;;;;;7.63;2.40;;;38.20;48.50;;;;;;5021768;28;20641;-70
2023/08/16 08:58:48;;;;;;;6.25;2.35;;;39.10;45.70;;;;;;5019914;28;20025;-70
2023/08/16 09:01:14;;;;;;;3.95;1.85;;;39.60;46.50;;;;;;5020055;28;20032;-70
2023/08/16 09:03:44;;;;;;;5.00;2.00;;;40.10;45.60;;;;;;5023494;28;20116;-70
2023/08/16 09:06:11;;;;;;;2.87;1.57;;;40.50;42.90;;;;;;5021290;28;20833;-70
2023/08/16 09:08:37;;;;;;;5.05;1.60;;;40.40;43.40;;;;;;5019386;28;20400;-70
2023/08/16 09:11:03;;;;;;;4.82;1.90;;;40.00;43.40;;;;;;5016713;28;20040;-70
2023/08/16 09:13:30;;;;;;;5.32;2.22;;;39.60;43.70;;;;;;5023352;28;20033;-69
2023/08/16 09:15:56;;;;;;;4.85;2.00;;;39.30;44.30;;;;;;5027796;28;20128;-70
2023/08/16 09:18:22;;;;;;;5.70;2.00;;;39.70;45.30;;;;;;5021323;28;20041;-70
2023/08/16 09:20:49;;;;;;;5.47;2.00;;;39.30;42.60;;;;;;5016849;28;20037;-70
2023/08/16 09:23:18;;;;;;;5.25;1.77;;;38.30;43.20;;;;;;5019356;28;20025;-69
2023/08/16 09:25:44;;;;;;;4.68;2.00;;;37.90;45.70;;;;;;5025906;28;20027;-69
2023/08/16 09:28:11;;;;;;;4.15;1.77;;;38.10;45.50;;;;;;5035603;28;20488;-70
2023/08/16 09:30:37;;;;;;;7.53;1.80;;;38.60;44.80;;;;;;5027337;28;20043;-70
2023/08/16 09:33:03;;;;;;;5.25;1.67;;;39.80;43.50;;;;;;5021055;28;20045;-70
2023/08/16 09:35:45;;;;;;;4.38;1.88;;;40.70;42.00;;;;;;5027982;28;20511;-69
2023/08/16 09:38:14;;;;;;;4.57;1.70;;;41.20;40.90;;;;;;5018044;28;20638;-70
2023/08/16 09:40:52;;;;;;;3.53;1.10;;;41.00;41.70;;;;;;5022077;28;20025;-70
2023/08/16 09:43:18;;;;;;;3.85;1.27;;;40.90;41.00;;;;;;5020068;28;20024;-70
2023/08/16 09:45:49;;;;;;;4.90;1.45;;;41.00;42.30;;;;;;5029569;28;20055;-70
2023/08/16 09:48:14;;;;;;;3.83;1.30;;;41.30;40.70;;;;;;5019853;28;20048;-70
2023/08/16 09:50:40;;;;;;;3.92;1.60;;;41.60;40.60;;;;;;5022137;28;20524;-70
2023/08/16 09:53:06;;;;;;;3.65;1.25;;;41.60;40.10;;;;;;5032681;28;20750;-69
2023/08/16 09:55:33;;;;;;;5.05;1.48;;;41.70;39.50;;;;;;5021552;28;20055;-69
2023/08/16 09:58:00;;;;;;;3.67;1.52;;;41.60;38.50;;;;;;5027747;28;20039;-69
2023/08/16 10:00:28;;;;;;;5.50;1.42;;;42.20;39.00;;;;;;5023280;28;20048;-69
2023/08/16 10:02:55;;;;;;;3.53;1.30;;;42.60;39.80;;;;;;5032690;28;20033;-69
2023/08/16 10:05:21;;;;;;;4.97;1.42;;;43.10;37.70;;;;;;5039007;28;20029;-69
2023/08/16 10:07:48;;;;;;;5.03;1.38;;;43.50;36.00;;;;;;5026523;28;20136;-69
2023/08/16 10:10:14;;;;;;;2.75;1.20;;;43.30;36.30;;;;;;5035744;28;20033;-69
2023/08/16 10:12:40;;;;;;;3.40;1.33;;;43.60;36.20;;;;;;5026571;28;20134;-69
2023/08/16 10:15:07;;;;;;;4.85;1.05;;;44.10;36.70;;;;;;5022362;28;20120;-70
2023/08/16 10:17:34;;;;;;;2.85;0.98;;;44.40;35.60;;;;;;5027408;28;20037;-69
2023/08/16 10:20:06;;;;;;;2.92;1.33;;;44.40;35.90;;;;;;4675732;28;9999722;-69
2023/08/16 10:22:39;;;;;;;4.10;1.27;;;44.70;37.90;;;;;;5031086;28;20524;-69
2023/08/16 10:25:12;;;;;;;4.50;1.05;;;45.00;35.60;;;;;;5017218;28;20884;-69
2023/08/16 10:27:41;;;;;;;3.60;1.02;;;45.00;34.20;;;;;;5018638;28;20432;-70
2023/08/16 10:30:12;;;;;;;4.85;1.48;;;44.80;35.30;;;;;;5016779;28;20128;-69
2023/08/16 10:32:41;;;;;;;2.53;1.27;;;44.30;33.30;;;;;;5022584;28;20065;-70
2023/08/16 10:35:08;;;;;;;3.15;1.10;;;44.80;36.00;;;;;;5028778;28;20318;-70
2023/08/16 10:37:34;;;;;;;4.40;1.00;;;44.90;32.90;;;;;;5030256;28;20100;-71
2023/08/16 10:40:00;;;;;;;5.18;1.27;;;45.30;34.60;;;;;;5023179;28;20068;-70
2023/08/16 10:42:26;;;;;;;7.22;4.15;;;45.60;35.00;;;;;;5020261;28;20195;-70
2023/08/16 10:44:52;;;;;;;3.42;1.20;;;45.80;32.60;;;;;;4682848;28;10000497;-70
2023/08/16 10:47:28;;;;;;;2.45;0.60;;;45.70;34.20;;;;;;5031639;28;20040;-70
2023/08/16 10:49:54;;;;;;;1.98;0.90;;;45.90;31.40;;;;;;5020250;28;20041;-71
2023/08/16 10:52:30;;;;;;;2.33;0.70;;;46.10;33.50;;;;;;5014024;28;20087;-70
2023/08/16 10:54:55;;;;;;;3.35;1.25;;;46.00;31.70;;;;;;5022466;28;20432;-71
2023/08/16 10:57:25;;;;;;;2.75;0.93;;;45.40;32.20;;;;;;5021501;28;20033;-70
2023/08/16 11:00:04;;;;;;;1.77;0.70;;;44.00;31.40;;;;;;5043746;28;20277;-70
2023/08/16 11:02:31;;;;;;;2.67;1.00;;;43.80;34.70;;;;;;5022748;28;20045;-70
2023/08/16 11:05:00;;;;;;;2.90;1.00;;;43.70;31.70;;;;;;5027163;28;20531;-70
2023/08/16 11:07:28;;;;;;;2.78;1.20;;;43.70;33.60;;;;;;5029423;28;20037;-70
2023/08/16 11:09:59;;;;;;;3.03;1.05;;;43.60;33.40;;;;;;5027247;28;20047;-70
2023/08/16 11:12:31;;;;;;;1.98;0.80;;;42.10;34.90;;;;;;5033036;28;20072;-70
2023/08/16 11:15:00;;;;;;;3.25;1.17;;;39.50;37.00;;;;;;5037538;28;20524;-70
2023/08/16 11:17:29;;;;;;;3.85;1.25;;;36.90;38.60;;;;;;5036742;28;20162;-70
2023/08/16 11:19:55;;;;;;;4.75;1.30;;;34.90;44.70;;;;;;5033928;28;20278;-69
2023/08/16 11:22:22;;;;;;;4.30;1.10;;;34.50;43.10;;;;;;5046163;28;20127;-71
2023/08/16 11:24:49;;;;;;;5.20;1.42;;;35.90;41.20;;;;;;5028932;28;20107;-70
2023/08/16 11:27:24;;;;;;;3.92;1.15;;;37.70;42.00;;;;;;5013544;28;20112;-70
2023/08/16 11:29:56;;;;;;;3.42;1.50;;;39.30;39.40;;;;;;5031447;28;20111;-71
2023/08/16 11:32:36;;;;;;;4.10;1.15;;;40.00;37.20;;;;;;5032920;28;20049;-70
2023/08/16 11:35:11;;;;;;;4.55;1.10;;;39.10;37.10;;;;;;5039894;28;20078;-70
2023/08/16 11:37:40;;;;;;;3.08;1.08;;;38.00;37.80;;;;;;5032083;28;20024;-70
2023/08/16 11:40:10;;;;;;;3.63;1.10;;;37.50;40.40;;;;;;5049878;28;20046;-70
2023/08/16 11:42:36;;;;;;;3.60;0.93;;;36.00;41.00;;;;;;5033084;28;20231;-70
2023/08/16 11:45:14;;;;;;;2.58;1.10;;;35.40;41.60;;;;;;5030892;28;20145;-70
2023/08/16 11:47:39;;;;;;;3.70;1.20;;;34.30;44.20;;;;;;5041383;28;20123;-70
2023/08/16 11:50:09;;;;;;;3.78;1.00;;;33.50;45.40;;;;;;5032859;28;20336;-70
2023/08/16 11:52:34;;;;;;;5.20;1.15;;;32.90;46.60;;;;;;5028195;28;20036;-70
2023/08/16 11:55:06;;;;;;;2.92;0.90;;;32.60;45.20;;;;;;5032173;28;20053;-70
2023/08/16 11:57:33;;;;;;;1.90;1.10;;;32.60;49.40;;;;;;5037201;28;20559;-70
2023/08/16 12:00:01;;;;;;;2.58;1.00;;;32.70;51.20;;;;;;5033495;28;20110;-70
2023/08/16 12:02:28;;;;;;;2.67;1.23;;;32.80;47.80;;;;;;5041202;28;20067;-70
2023/08/16 12:04:54;;;;;;;3.08;0.90;;;32.30;49.10;;;;;;5031207;28;20547;-70
2023/08/16 12:07:19;;;;;;;1.95;0.90;;;31.70;50.40;;;;;;5031310;28;20052;-70
2023/08/16 12:09:48;;;;;;;2.45;1.08;;;30.90;50.50;;;;;;5023586;28;20091;-70
2023/08/16 12:12:13;;;;;;;2.50;1.20;;;30.50;53.30;;;;;;5033138;28;20143;-70
2023/08/16 12:14:39;;;;;;;2.00;1.00;;;30.60;53.10;;;;;;5020826;28;20267;-70
2023/08/16 12:17:05;;;;;;;2.70;0.90;;;30.30;52.60;;;;;;5027043;28;20036;-70
2023/08/16 12:19:30;;;;;;;2.22;1.00;;;30.90;50.10;;;;;;5014013;28;20444;-70
2023/08/16 12:21:56;;;;;;;3.33;1.30;;;31.20;50.50;;;;;;5019110;28;20032;-70
2023/08/16 12:24:22;;;;;;;3.10;0.80;;;31.80;50.70;;;;;;5025637;28;20039;-70
2023/08/16 12:26:47;;;;;;;2.50;1.02;;;32.70;54.10;;;;;;5031474;28;20062;-70
2023/08/16 12:29:13;;;;;;;3.15;1.25;;;32.60;47.20;;;;;;5019810;28;20048;-71
2023/08/16 12:31:38;;;;;;;5.45;1.50;;;32.90;49.40;;;;;;5025973;28;20082;-71
2023/08/16 12:34:07;;;;;;;7.40;1.65;;;32.60;50.10;;;;;;5015668;28;20041;-70
2023/08/16 12:36:33;;;;;;;6.50;1.85;;;32.70;51.80;;;;;;4675526;28;10000300;-70
2023/08/16 12:38:59;;;;;;;4.13;1.45;;;32.60;52.20;;;;;;5014327;28;20493;-71
2023/08/16 12:41:24;;;;;;;4.35;1.13;;;33.00;53.10;;;;;;5028458;28;20032;-70
2023/08/16 12:43:51;;;;;;;3.58;1.20;;;33.20;50.30;;;;;;5031423;28;20020;-70